createdAt,value
2018-07-12T00:01:30.623Z,55.27
2018-07-12T00:03:57.700Z,58.20
2018-07-12T00:06:24.753Z,47.30
2018-07-12T00:08:51.799Z,53.43
2018-07-12T00:11:18.840Z,63.57
2018-07-12T00:13:45.905Z,70.93
2018-07-12T00:16:12.956Z,64.80
2018-07-12T00:18:39.981Z,65.63
2018-07-12T00:21:07.176Z,68.93
2018-07-12T00:23:34.214Z,52.73
2018-07-12T00:26:01.321Z,62.03
2018-07-12T00:28:28.366Z,54.43
2018-07-12T00:30:55.422Z,52.00
2018-07-12T00:33:22.468Z,63.73
2018-07-12T00:35:49.526Z,53.83
2018-07-12T00:38:16.599Z,64.10
2018-07-12T00:40:43.647Z,59.40
2018-07-12T00:43:10.699Z,64.47
2018-07-12T00:45:37.756Z,61.73
2018-07-12T00:48:04.813Z,67.40
2018-07-12T00:50:31.936Z,67.27
2018-07-12T00:52:58.969Z,75.30
2018-07-12T00:55:26.013Z,60.63
2018-07-12T00:57:53.064Z,66.13
2018-07-12T01:00:20.136Z,78.40
2018-07-12T01:02:47.177Z,73.90
2018-07-12T01:05:14.240Z,69.60
2018-07-12T01:07:41.261Z,66.20
2018-07-12T01:10:08.306Z,59.37
2018-07-12T01:12:35.390Z,62.63
2018-07-12T01:15:02.442Z,71.83
2018-07-12T01:17:29.489Z,75.27
2018-07-12T01:19:56.585Z,76.20
2018-07-12T01:22:23.692Z,63.83
2018-07-12T01:24:50.729Z,80.67
2018-07-12T01:27:17.764Z,79.50
2018-07-12T01:29:44.801Z,62.37
2018-07-12T01:32:11.843Z,65.67
2018-07-12T01:34:38.888Z,74.00
2018-07-12T01:37:05.933Z,59.97
2018-07-12T01:39:32.970Z,73.00
2018-07-12T01:42:00.690Z,83.80
2018-07-12T01:44:27.718Z,79.20
2018-07-12T01:46:54.870Z,83.73
2018-07-12T01:49:21.927Z,54.00
2018-07-12T01:51:48.969Z,67.10
2018-07-12T01:54:16.010Z,89.37
2018-07-12T01:56:43.113Z,82.23
2018-07-12T01:59:10.175Z,77.67
2018-07-12T02:01:37.260Z,98.87
2018-07-12T02:04:04.316Z,74.40
2018-07-12T02:06:31.418Z,75.80
2018-07-12T02:08:58.453Z,72.27
2018-07-12T02:11:25.563Z,71.43
2018-07-12T02:13:52.721Z,82.17
2018-07-12T02:16:19.804Z,74.23
2018-07-12T02:18:46.865Z,68.43
2018-07-12T02:21:13.964Z,83.97
2018-07-12T02:23:41.012Z,73.27
2018-07-12T02:26:08.071Z,79.23
2018-07-12T02:28:35.108Z,76.77
2018-07-12T02:31:02.153Z,81.80
2018-07-12T02:33:29.201Z,155.43
2018-07-12T02:35:56.244Z,267.73
2018-07-12T02:38:23.332Z,95.90
2018-07-12T02:40:50.188Z,59.13
2018-07-12T02:43:17.227Z,106.40
2018-07-12T02:45:44.281Z,161.23
2018-07-12T02:48:11.325Z,62.20
2018-07-12T02:50:38.365Z,92.53
2018-07-12T02:53:05.473Z,121.20
2018-07-12T02:55:32.493Z,93.17
2018-07-12T02:57:59.532Z,344.90
2018-07-12T03:00:26.653Z,531.07
2018-07-12T03:02:53.740Z,840.90
2018-07-12T03:05:20.781Z,1002.77
2018-07-12T03:07:47.833Z,868.70
2018-07-12T03:10:14.884Z,522.33
2018-07-12T03:12:41.944Z,574.20
2018-07-12T03:15:08.988Z,337.03
2018-07-12T03:17:36.027Z,450.50
2018-07-12T03:20:03.080Z,415.10
2018-07-12T03:22:30.151Z,438.23
2018-07-12T03:24:57.198Z,508.97
2018-07-12T03:27:24.273Z,400.80
2018-07-12T03:29:51.326Z,599.23
2018-07-12T03:32:18.391Z,334.70
2018-07-12T03:34:45.434Z,373.73
2018-07-12T03:37:12.486Z,297.83
2018-07-12T03:39:39.516Z,430.07
2018-07-12T03:42:06.573Z,357.60
2018-07-12T03:44:33.608Z,299.10
2018-07-12T03:47:00.676Z,380.50
2018-07-12T03:49:27.940Z,416.53
2018-07-12T03:51:55.012Z,301.40
2018-07-12T03:54:22.045Z,313.13
2018-07-12T03:56:49.104Z,191.17
2018-07-12T03:59:16.369Z,204.73
2018-07-12T04:01:43.451Z,206.10
2018-07-12T04:04:10.489Z,247.47
2018-07-12T04:06:37.584Z,135.27
2018-07-12T04:09:05.605Z,68.27
2018-07-12T04:11:32.716Z,158.47
2018-07-12T04:13:59.760Z,90.93
2018-07-12T04:16:26.809Z,71.53
2018-07-12T04:18:53.853Z,87.10
2018-07-12T04:21:20.899Z,61.87
2018-07-12T04:23:47.924Z,66.53
2018-07-12T04:26:14.971Z,144.77
2018-07-12T04:28:42.240Z,119.43
2018-07-12T04:31:09.293Z,78.78
2018-07-12T04:33:36.340Z,177.57
2018-07-12T04:36:03.420Z,232.20
2018-07-12T04:38:30.440Z,215.67
2018-07-12T04:40:57.472Z,127.50
2018-07-12T04:43:24.616Z,207.17
2018-07-12T04:45:51.684Z,97.20
2018-07-12T04:48:18.736Z,163.73
2018-07-12T04:50:45.776Z,99.60
2018-07-12T04:53:12.868Z,108.70
2018-07-12T04:55:39.950Z,56.17
2018-07-12T04:58:07.036Z,42.80
2018-07-12T05:00:34.041Z,41.93
2018-07-12T05:03:01.089Z,76.43
2018-07-12T05:05:28.117Z,72.63
2018-07-12T05:07:55.164Z,53.33
2018-07-12T05:10:22.225Z,67.07
2018-07-12T05:12:49.280Z,39.90
2018-07-12T05:15:16.454Z,45.60
2018-07-12T05:17:43.510Z,41.17
2018-07-12T05:20:10.565Z,54.80
2018-07-12T05:22:37.605Z,33.40
2018-07-12T05:25:04.654Z,17.87
2018-07-12T05:27:31.696Z,18.30
2018-07-12T05:29:58.728Z,16.33
2018-07-12T05:32:25.778Z,22.13
2018-07-12T05:34:52.828Z,14.30
2018-07-12T05:37:21.624Z,12.97
2018-07-12T05:39:50.144Z,12.80
2018-07-12T05:44:57.616Z,11.90
2018-07-12T05:47:25.621Z,11.73
2018-07-12T05:49:53.702Z,11.47
2018-07-12T05:52:21.732Z,11.43
2018-07-12T05:54:49.745Z,15.67
2018-07-12T05:57:17.925Z,14.63
2018-07-12T05:59:45.892Z,10.40
2018-07-12T06:02:21.908Z,10.80
2018-07-12T06:04:50.252Z,13.23
2018-07-12T06:07:23.640Z,11.37
2018-07-12T06:09:51.708Z,11.60
2018-07-12T06:12:20.204Z,16.03
2018-07-12T06:14:48.214Z,15.30
2018-07-12T06:17:16.344Z,13.30
2018-07-12T06:19:44.436Z,18.27
2018-07-12T06:22:12.464Z,14.70
2018-07-12T06:24:40.627Z,15.87
2018-07-12T06:27:08.614Z,21.43
2018-07-12T06:29:36.733Z,16.20
2018-07-12T06:32:04.849Z,18.90
2018-07-12T06:34:32.968Z,18.77
2018-07-12T06:37:01.134Z,20.70
2018-07-12T06:39:29.022Z,20.87
2018-07-12T06:41:57.098Z,22.30
2018-07-12T06:44:25.115Z,20.30
2018-07-12T06:46:53.124Z,21.53
2018-07-12T06:49:21.200Z,21.13
2018-07-12T06:51:49.340Z,22.40
2018-07-12T06:54:17.644Z,17.93
2018-07-12T06:56:45.629Z,16.70
2018-07-12T06:59:13.662Z,23.97
2018-07-12T07:01:41.756Z,20.27
2018-07-12T07:04:09.831Z,21.37
2018-07-12T07:06:37.842Z,19.27
2018-07-12T07:09:07.715Z,17.30
2018-07-12T07:11:35.856Z,17.63
2018-07-12T07:14:03.925Z,21.63
2018-07-12T07:16:32.053Z,15.33
2018-07-12T07:19:00.218Z,15.57
2018-07-12T07:21:28.425Z,23.10
2018-07-12T07:23:56.590Z,26.90
2018-07-12T07:26:24.771Z,15.40
2018-07-12T07:28:52.685Z,13.83
2018-07-12T07:31:20.756Z,24.00
2018-07-12T07:33:48.806Z,18.50
2018-07-12T07:36:16.970Z,18.80
2018-07-12T07:38:45.061Z,17.20
2018-07-12T07:41:13.157Z,20.13
2018-07-12T07:43:41.173Z,23.83
2018-07-12T07:46:09.393Z,12.07
2018-07-12T07:48:37.412Z,14.47
2018-07-12T07:51:05.437Z,17.97
2018-07-12T07:53:33.648Z,19.57
2018-07-12T07:56:01.808Z,27.17
2018-07-12T07:58:29.781Z,15.87
2018-07-12T08:00:57.784Z,9.93
2018-07-12T08:03:25.821Z,14.13
2018-07-12T08:05:53.900Z,13.33
2018-07-12T08:08:21.985Z,12.63
2018-07-12T08:10:50.122Z,12.30
2018-07-12T08:13:18.128Z,14.90
2018-07-12T08:15:46.121Z,13.87
2018-07-12T08:18:14.200Z,18.83
2018-07-12T08:20:42.378Z,17.70
2018-07-12T08:23:10.353Z,10.23
2018-07-12T08:25:38.337Z,10.30
2018-07-12T08:28:18.100Z,11.77
2018-07-12T08:30:46.088Z,24.10
2018-07-12T08:33:14.137Z,18.83
2018-07-12T08:35:42.167Z,12.70
2018-07-12T08:38:10.233Z,12.50
2018-07-12T08:40:38.238Z,12.23
2018-07-12T08:43:06.776Z,11.10
2018-07-12T08:45:35.258Z,13.23
2018-07-12T08:48:03.337Z,10.00
2018-07-12T08:50:33.169Z,17.13
2018-07-12T08:53:03.949Z,17.80
2018-07-12T08:55:32.403Z,18.67
2018-07-12T08:58:00.868Z,15.20
2018-07-12T09:00:32.033Z,8.97
2018-07-12T09:03:04.327Z,16.57
2018-07-12T09:05:33.186Z,11.10
2018-07-12T09:08:05.625Z,10.23
2018-07-12T09:10:33.606Z,10.73
2018-07-12T09:13:03.137Z,8.67
2018-07-12T09:15:32.136Z,13.23
2018-07-12T09:18:00.175Z,11.60
2018-07-12T09:20:28.662Z,15.83
2018-07-12T09:22:56.628Z,10.50
2018-07-12T09:25:24.650Z,13.03
2018-07-12T09:27:52.629Z,8.27
2018-07-12T09:30:20.613Z,10.40
2018-07-12T09:32:48.720Z,8.53
2018-07-12T09:35:16.953Z,15.33
2018-07-12T09:37:44.935Z,10.13
2018-07-12T09:40:13.053Z,7.23
2018-07-12T09:42:41.045Z,11.73
2018-07-12T09:45:09.025Z,6.13
2018-07-12T09:47:37.037Z,6.63
2018-07-12T09:50:05.014Z,9.13
2018-07-12T09:52:33.809Z,16.40
2018-07-12T09:55:02.296Z,6.13
2018-07-12T09:58:44.668Z,8.30
2018-07-12T10:01:18.105Z,9.03
2018-07-12T10:03:48.548Z,10.00
2018-07-12T10:06:22.061Z,12.17
2018-07-12T10:08:56.788Z,8.23
2018-07-12T10:11:30.311Z,12.40
2018-07-12T10:14:02.682Z,23.07
2018-07-12T10:16:43.532Z,4.60
2018-07-12T10:19:11.695Z,7.27
2018-07-12T10:21:40.833Z,5.10
2018-07-12T10:24:08.868Z,8.13
2018-07-12T10:26:36.860Z,8.13
2018-07-12T10:29:04.853Z,10.70
2018-07-12T10:31:32.848Z,12.10
2018-07-12T10:34:00.891Z,7.20
2018-07-12T10:36:28.890Z,13.63
2018-07-12T10:38:56.876Z,6.33
2018-07-12T10:41:24.868Z,3.50
2018-07-12T10:43:52.905Z,9.80
2018-07-12T10:46:20.901Z,5.00
2018-07-12T10:48:48.896Z,5.30
2018-07-12T10:51:16.894Z,24.40
2018-07-12T10:53:44.884Z,3.73
2018-07-12T10:56:12.872Z,11.37
2018-07-12T10:58:40.871Z,7.20
2018-07-12T11:01:08.841Z,7.93
2018-07-12T11:03:36.817Z,3.00
2018-07-12T11:06:04.922Z,2.40
2018-07-12T11:08:32.897Z,5.03
2018-07-12T11:11:00.885Z,6.87
2018-07-12T11:13:40.340Z,8.43
2018-07-12T11:16:08.329Z,5.30
2018-07-12T11:18:36.300Z,3.67
2018-07-12T11:21:04.332Z,6.90
2018-07-12T11:23:32.244Z,3.20
2018-07-12T11:26:00.242Z,10.13
2018-07-12T11:28:28.209Z,2.77
2018-07-12T11:30:56.221Z,8.57
2018-07-12T11:33:41.272Z,5.40
2018-07-12T11:36:09.557Z,4.13
2018-07-12T11:38:38.653Z,3.33
2018-07-12T11:41:07.232Z,3.17
2018-07-12T11:43:35.213Z,2.70
2018-07-12T11:46:04.497Z,2.80
2018-07-12T11:48:33.517Z,2.30
2018-07-12T11:51:01.490Z,2.57
2018-07-12T11:53:29.475Z,9.17
2018-07-12T11:55:57.608Z,2.77
2018-07-12T11:58:25.996Z,10.23
2018-07-12T12:00:55.295Z,12.27
2018-07-12T12:03:23.288Z,6.30
2018-07-12T12:05:51.289Z,5.73
2018-07-12T12:08:19.285Z,2.07
2018-07-12T12:10:47.269Z,3.03
2018-07-12T12:13:15.753Z,2.37
2018-07-12T12:15:43.768Z,2.80
2018-07-12T12:18:11.765Z,6.73
2018-07-12T12:20:40.425Z,2.60
2018-07-12T12:23:09.063Z,7.20
2018-07-12T12:25:37.695Z,2.33
2018-07-12T12:28:05.716Z,6.40
2018-07-12T12:30:33.767Z,2.77
2018-07-12T12:33:01.737Z,3.73
2018-07-12T12:35:29.726Z,3.10
2018-07-12T12:37:57.747Z,4.63
2018-07-12T12:40:25.733Z,3.67
2018-07-12T12:42:53.721Z,5.63
2018-07-12T12:48:01.299Z,4.10
2018-07-12T12:50:29.273Z,2.43
2018-07-12T12:52:57.273Z,2.43
2018-07-12T12:55:25.259Z,4.20
2018-07-12T12:57:53.307Z,4.73
2018-07-12T13:00:21.320Z,4.08
2018-07-12T13:02:49.321Z,9.83
2018-07-12T13:05:17.342Z,4.20
2018-07-12T13:07:45.330Z,7.57
2018-07-12T13:10:13.541Z,2.77
2018-07-12T13:12:41.574Z,5.33
2018-07-12T13:15:10.197Z,5.23
2018-07-12T13:17:38.468Z,7.80
2018-07-12T13:20:06.529Z,5.47
2018-07-12T13:22:34.501Z,2.73
2018-07-12T13:25:02.492Z,4.70
2018-07-12T13:27:30.535Z,6.63
2018-07-12T13:29:58.530Z,6.93
2018-07-12T13:32:26.562Z,12.90
2018-07-12T13:34:54.555Z,3.43
2018-07-12T13:37:22.602Z,3.83
2018-07-12T13:39:50.760Z,2.87
2018-07-12T13:42:18.765Z,4.87
2018-07-12T13:44:46.760Z,3.10
2018-07-12T13:47:14.768Z,3.10
2018-07-12T13:49:42.867Z,3.10
2018-07-12T13:52:10.924Z,5.67
2018-07-12T13:54:38.885Z,8.10
2018-07-12T13:57:07.169Z,2.93
2018-07-12T13:59:35.195Z,3.03
2018-07-12T14:02:03.489Z,9.00
2018-07-12T14:04:31.500Z,11.27
2018-07-12T14:06:59.645Z,3.70
2018-07-12T14:09:27.644Z,5.10
2018-07-12T14:11:55.620Z,3.73
2018-07-12T14:14:23.624Z,5.40
2018-07-12T14:16:51.658Z,6.63
2018-07-12T14:19:19.782Z,9.27
2018-07-12T14:21:47.814Z,10.40
2018-07-12T14:24:15.880Z,3.17
2018-07-12T14:26:43.869Z,5.60
2018-07-12T14:29:11.880Z,7.33
2018-07-12T14:31:39.913Z,3.07
2018-07-12T14:34:07.912Z,4.00
2018-07-12T14:36:35.905Z,2.87
2018-07-12T14:39:05.625Z,4.30
2018-07-12T14:41:33.636Z,10.63
2018-07-12T14:44:01.656Z,21.73
2018-07-12T14:46:29.665Z,8.90
2018-07-12T14:48:57.664Z,14.53
2018-07-12T14:51:25.660Z,10.70
2018-07-12T14:53:53.673Z,4.20
2018-07-12T14:56:21.693Z,7.70
2018-07-12T14:58:49.859Z,4.13
2018-07-12T15:01:17.828Z,6.87
2018-07-12T15:03:45.835Z,10.13
2018-07-12T15:06:13.893Z,4.97
2018-07-12T15:08:41.963Z,10.10
2018-07-12T15:11:09.921Z,6.63
2018-07-12T15:13:37.905Z,5.30
2018-07-12T15:16:05.916Z,3.63
2018-07-12T15:18:33.901Z,7.20
2018-07-12T15:21:01.907Z,16.33
2018-07-12T15:23:29.904Z,4.40
2018-07-12T15:25:58.079Z,3.00
2018-07-12T15:28:26.063Z,9.23
2018-07-12T15:30:54.073Z,4.23
2018-07-12T15:33:22.097Z,3.93
2018-07-12T15:35:50.298Z,12.17
2018-07-12T15:38:18.272Z,18.53
2018-07-12T15:40:46.253Z,5.20
2018-07-12T15:43:14.229Z,7.43
2018-07-12T15:45:42.225Z,7.03
2018-07-12T15:48:10.244Z,14.03
2018-07-12T15:50:38.236Z,9.03
2018-07-12T15:53:06.212Z,8.53
2018-07-12T15:55:34.198Z,10.97
2018-07-12T15:58:02.229Z,4.83
2018-07-12T16:00:30.213Z,4.30
2018-07-12T16:02:58.252Z,6.90
2018-07-12T16:05:26.245Z,11.50
2018-07-12T16:07:54.225Z,9.87
2018-07-12T16:10:22.264Z,13.43
2018-07-12T16:12:50.250Z,13.43
2018-07-12T16:15:18.228Z,16.57
2018-07-12T16:17:46.209Z,10.03
2018-07-12T16:20:14.193Z,10.10
2018-07-12T16:22:42.183Z,10.10
2018-07-12T16:25:10.168Z,8.87
2018-07-12T16:27:38.170Z,12.87
2018-07-12T16:30:06.517Z,5.40
2018-07-12T16:32:34.500Z,6.10
2018-07-12T16:35:02.498Z,6.90
2018-07-12T16:37:30.493Z,5.47
2018-07-12T16:39:58.464Z,7.90
2018-07-12T16:42:26.538Z,13.07
2018-07-12T16:44:54.520Z,4.93
2018-07-12T16:47:22.531Z,4.67
2018-07-12T16:49:50.529Z,4.93
2018-07-12T16:52:18.542Z,9.63
2018-07-12T16:54:46.536Z,6.50
2018-07-12T16:57:14.557Z,5.63
2018-07-12T16:59:42.568Z,6.37
2018-07-12T17:02:10.601Z,6.17
2018-07-12T17:04:38.581Z,3.63
2018-07-12T17:07:06.602Z,7.17
2018-07-12T17:09:34.556Z,6.80
2018-07-12T17:12:02.570Z,4.73
2018-07-12T17:14:30.734Z,5.17
2018-07-12T17:16:58.747Z,4.73
2018-07-12T17:19:26.746Z,14.53
2018-07-12T17:21:54.736Z,4.77
2018-07-12T17:24:22.813Z,6.53
2018-07-12T17:26:51.403Z,10.23
2018-07-12T17:29:19.396Z,6.53
2018-07-12T17:31:47.396Z,9.37
2018-07-12T17:34:15.549Z,8.33
2018-07-12T17:36:43.531Z,5.47
2018-07-12T17:39:11.566Z,15.10
2018-07-12T17:41:39.578Z,6.13
2018-07-12T17:44:07.597Z,5.30
2018-07-12T17:46:35.605Z,6.20
2018-07-12T17:49:03.605Z,6.37
2018-07-12T17:51:31.612Z,7.80
2018-07-12T17:53:59.617Z,8.03
2018-07-12T17:56:27.665Z,6.90
2018-07-12T17:58:55.717Z,5.63
2018-07-12T18:01:23.749Z,9.13
2018-07-12T18:03:51.759Z,8.90
2018-07-12T18:06:19.764Z,16.33
2018-07-12T18:08:47.779Z,7.90
2018-07-12T18:11:15.787Z,7.20
2018-07-12T18:13:43.790Z,8.07
2018-07-12T18:16:11.825Z,6.60
2018-07-12T18:18:39.904Z,7.73
2018-07-12T18:21:08.135Z,4.40
2018-07-12T18:23:36.163Z,9.57
2018-07-12T18:26:04.150Z,7.17
2018-07-12T18:28:32.169Z,5.83
2018-07-12T18:31:00.172Z,9.03
2018-07-12T18:33:28.181Z,5.53
2018-07-12T18:35:56.233Z,6.53
2018-07-12T18:38:24.265Z,7.53
2018-07-12T18:40:52.310Z,7.30
2018-07-12T18:43:20.341Z,8.20
2018-07-12T18:45:48.393Z,10.77
2018-07-12T18:48:16.394Z,8.00
2018-07-12T18:50:44.392Z,10.80
2018-07-12T18:53:12.444Z,27.17
2018-07-12T18:55:40.488Z,7.57
2018-07-12T18:58:08.516Z,11.53
2018-07-12T19:00:36.505Z,6.40
2018-07-12T19:03:04.528Z,16.80
2018-07-12T19:05:32.597Z,8.77
2018-07-12T19:08:00.685Z,15.67
2018-07-12T19:10:28.672Z,10.13
2018-07-12T19:12:56.660Z,8.60
2018-07-12T19:15:24.801Z,5.93
2018-07-12T19:17:52.785Z,11.93
2018-07-12T19:20:21.004Z,7.43
2018-07-12T19:22:49.127Z,6.93
2018-07-12T19:25:17.113Z,9.30
2018-07-12T19:27:45.113Z,7.10
2018-07-12T19:30:13.237Z,6.63
2018-07-12T19:32:41.294Z,14.80
2018-07-12T19:35:09.948Z,10.13
2018-07-12T19:37:38.256Z,6.00
2018-07-12T19:40:06.484Z,7.50
2018-07-12T19:42:34.635Z,8.23
2018-07-12T19:45:02.855Z,7.80
2018-07-12T19:47:31.061Z,7.60
2018-07-12T19:49:59.138Z,10.63
2018-07-12T19:52:27.246Z,8.93
2018-07-12T19:54:55.623Z,4.13
2018-07-12T19:57:24.046Z,9.07
2018-07-12T19:59:52.088Z,14.33
2018-07-12T20:02:20.352Z,12.90
2018-07-12T20:04:48.580Z,8.20
2018-07-12T20:07:16.836Z,16.10
2018-07-12T20:09:45.037Z,7.87
2018-07-12T20:12:13.094Z,13.37
2018-07-12T20:14:41.221Z,18.60
2018-07-12T20:17:09.277Z,12.43
2018-07-12T20:19:37.375Z,8.77
2018-07-12T20:22:05.452Z,10.60
2018-07-12T20:24:33.520Z,15.50
2018-07-12T20:27:01.592Z,7.90
2018-07-12T20:29:29.778Z,18.03
2018-07-12T20:31:57.868Z,16.90
2018-07-12T20:34:26.069Z,18.17
2018-07-12T20:36:54.202Z,12.00
2018-07-12T20:39:22.336Z,20.60
2018-07-12T20:41:50.883Z,10.20
2018-07-12T20:44:19.027Z,14.23
2018-07-12T20:46:47.842Z,19.40
2018-07-12T20:49:16.045Z,14.10
2018-07-12T20:51:44.256Z,21.83
2018-07-12T20:54:12.521Z,16.50
2018-07-12T20:56:40.697Z,21.60
2018-07-12T20:59:08.850Z,22.07
2018-07-12T21:01:36.962Z,16.03
2018-07-12T21:04:05.100Z,17.67
2018-07-12T21:06:33.230Z,23.37
2018-07-12T21:09:01.472Z,16.23
2018-07-12T21:11:29.634Z,26.90
2018-07-12T21:13:57.894Z,16.20
2018-07-12T21:16:26.069Z,26.73
2018-07-12T21:18:54.173Z,25.03
2018-07-12T21:21:22.230Z,24.07
2018-07-12T21:23:50.320Z,36.17
2018-07-12T21:26:18.359Z,25.07
2018-07-12T21:28:46.418Z,23.90
2018-07-12T21:31:14.500Z,22.13
2018-07-12T21:33:42.690Z,27.60
2018-07-12T21:36:10.701Z,20.93
2018-07-12T21:38:38.750Z,27.20
2018-07-12T21:41:07.060Z,23.87
2018-07-12T21:43:35.241Z,26.43
2018-07-12T21:46:03.338Z,22.43
2018-07-12T21:48:31.366Z,29.33
2018-07-12T21:50:59.377Z,27.23
2018-07-12T21:53:27.582Z,22.80
2018-07-12T21:55:55.596Z,26.63
2018-07-12T21:58:23.913Z,30.27
2018-07-12T22:00:52.022Z,27.23
2018-07-12T22:03:20.252Z,24.07
2018-07-12T22:05:48.761Z,34.53
2018-07-12T22:08:24.789Z,37.60
2018-07-12T22:10:54.974Z,29.33
2018-07-12T22:13:23.477Z,38.77
2018-07-12T22:15:51.569Z,33.70
2018-07-12T22:18:19.681Z,49.00
2018-07-12T22:20:47.693Z,37.40
2018-07-12T22:23:15.684Z,32.27
2018-07-12T22:25:43.692Z,28.90
2018-07-12T22:28:11.698Z,33.80
2018-07-12T22:30:39.844Z,37.80
2018-07-12T22:33:07.700Z,39.83
2018-07-12T22:35:35.703Z,34.33
2018-07-12T22:38:04.117Z,39.77
2018-07-12T22:40:32.440Z,36.73
2018-07-12T22:43:00.448Z,33.57
2018-07-12T22:45:28.476Z,32.27
2018-07-12T22:47:56.823Z,29.93
2018-07-12T22:50:24.781Z,40.07
2018-07-12T22:52:52.820Z,37.70
2018-07-12T22:55:21.093Z,29.63
2018-07-12T22:57:49.109Z,41.70
2018-07-12T23:00:17.232Z,35.63
2018-07-12T23:02:45.264Z,30.73
2018-07-12T23:05:13.284Z,30.57
2018-07-12T23:07:41.413Z,30.60
2018-07-12T23:10:10.412Z,33.50
2018-07-12T23:12:38.402Z,30.80
2018-07-12T23:15:06.417Z,38.17
2018-07-12T23:17:34.553Z,35.10
2018-07-12T23:20:02.628Z,38.83
2018-07-12T23:22:30.640Z,40.97
2018-07-12T23:24:58.669Z,37.50
2018-07-12T23:27:26.710Z,38.77
2018-07-12T23:29:54.730Z,36.03
2018-07-12T23:32:22.732Z,40.83
2018-07-12T23:34:50.759Z,34.43
2018-07-12T23:37:18.753Z,34.53
2018-07-12T23:39:46.761Z,44.53
2018-07-12T23:42:14.758Z,35.50
2018-07-12T23:44:42.752Z,34.67
2018-07-12T23:47:11.269Z,33.73
2018-07-12T23:49:39.331Z,39.73
2018-07-12T23:52:07.333Z,35.17
2018-07-12T23:54:35.373Z,37.80
2018-07-12T23:57:03.348Z,37.37
2018-07-12T23:59:31.409Z,32.87
